createdAt,value
2023-05-10T00:01:08.624Z,5.27
2023-05-10T00:03:36.571Z,18.55
2023-05-10T00:06:04.141Z,5.12
2023-05-10T00:08:31.715Z,5.68
2023-05-10T00:10:59.621Z,5.75
2023-05-10T00:13:27.212Z,5.90
2023-05-10T00:15:54.944Z,5.05
2023-05-10T00:18:22.794Z,6.75
2023-05-10T00:20:50.588Z,5.45
2023-05-10T00:23:18.165Z,5.05
2023-05-10T00:25:45.987Z,4.73
2023-05-10T00:28:13.506Z,6.43
2023-05-10T00:30:41.015Z,5.47
2023-05-10T00:33:08.853Z,4.65
2023-05-10T00:35:37.041Z,5.60
2023-05-10T00:38:04.684Z,5.50
2023-05-10T00:40:32.582Z,5.30
2023-05-10T00:43:01.557Z,6.37
2023-05-10T00:45:29.257Z,4.62
2023-05-10T00:47:58.321Z,5.65
2023-05-10T00:50:25.965Z,5.23
2023-05-10T00:52:53.841Z,6.25
2023-05-10T00:55:22.583Z,5.95
2023-05-10T00:57:50.325Z,4.70
2023-05-10T01:00:19.375Z,5.43
2023-05-10T01:02:47.841Z,4.87
2023-05-10T01:05:15.427Z,4.95
2023-05-10T01:07:43.093Z,5.30
2023-05-10T01:10:11.987Z,5.60
2023-05-10T01:12:42.367Z,4.37
2023-05-10T01:15:12.239Z,5.37
2023-05-10T01:17:42.307Z,5.93
2023-05-10T01:20:11.370Z,6.47
2023-05-10T01:23:08.110Z,5.22
2023-05-10T01:26:08.904Z,5.20
2023-05-10T01:28:51.292Z,4.30
2023-05-10T01:31:37.721Z,4.90
2023-05-10T01:34:17.481Z,5.93
2023-05-10T01:37:21.318Z,4.65
2023-05-10T01:39:59.345Z,5.78
2023-05-10T01:42:34.799Z,7.00
2023-05-10T01:45:40.715Z,10.18
2023-05-10T01:48:11.603Z,5.80
2023-05-10T01:50:44.357Z,6.18
2023-05-10T01:53:18.809Z,6.30
2023-05-10T01:55:49.725Z,9.07
2023-05-10T01:58:31.490Z,6.10
2023-05-10T02:01:02.553Z,6.32
2023-05-10T02:03:33.402Z,6.22
2023-05-10T02:06:01.021Z,6.07
2023-05-10T02:08:29.337Z,7.17
2023-05-10T02:10:59.674Z,8.38
2023-05-10T02:13:30.909Z,5.45
2023-05-10T02:16:00.284Z,6.80
2023-05-10T02:18:28.684Z,8.38
2023-05-10T02:20:57.612Z,5.63
2023-05-10T02:23:27.351Z,6.95
2023-05-10T02:25:58.041Z,7.07
2023-05-10T02:28:27.139Z,7.12
2023-05-10T02:30:56.335Z,7.37
2023-05-10T02:33:25.133Z,7.90
2023-05-10T02:35:53.598Z,9.40
2023-05-10T02:38:23.781Z,8.48
2023-05-10T02:40:52.379Z,8.07
2023-05-10T02:43:23.613Z,6.50
2023-05-10T02:45:51.714Z,8.80
2023-05-10T02:48:19.284Z,6.43
2023-05-10T02:50:49.649Z,8.10
2023-05-10T02:53:22.501Z,6.72
2023-05-10T02:55:53.556Z,6.37
2023-05-10T02:58:21.875Z,10.20
2023-05-10T03:00:49.449Z,7.30
2023-05-10T03:03:17.017Z,7.65
2023-05-10T03:05:44.814Z,8.20
2023-05-10T03:08:12.704Z,8.40
2023-05-10T03:10:57.238Z,8.13
2023-05-10T03:13:58.214Z,10.45
2023-05-10T03:16:36.836Z,7.45
2023-05-10T03:19:21.718Z,8.20
2023-05-10T03:21:53.651Z,8.68
2023-05-10T03:24:24.274Z,8.40
2023-05-10T03:26:56.655Z,8.85
2023-05-10T03:29:27.319Z,9.15
2023-05-10T03:31:54.920Z,8.38
2023-05-10T03:34:26.067Z,9.32
2023-05-10T03:36:53.981Z,8.90
2023-05-10T03:39:22.431Z,10.77
2023-05-10T03:41:50.521Z,10.35
2023-05-10T03:44:18.753Z,9.15
2023-05-10T03:46:46.618Z,8.63
2023-05-10T03:49:14.422Z,8.40
2023-05-10T03:51:42.332Z,8.82
2023-05-10T03:54:09.919Z,8.98
2023-05-10T03:56:37.546Z,8.98
2023-05-10T03:59:08.460Z,9.10
2023-05-10T04:01:36.189Z,7.83
2023-05-10T04:04:04.231Z,8.43
2023-05-10T04:06:33.031Z,10.98
2023-05-10T04:09:02.704Z,9.43
2023-05-10T04:11:30.504Z,10.00
2023-05-10T04:13:58.023Z,10.23
2023-05-10T04:16:25.593Z,13.85
2023-05-10T04:18:53.546Z,13.02
2023-05-10T04:21:21.676Z,11.73
2023-05-10T04:23:49.151Z,11.95
2023-05-10T04:26:17.257Z,12.50
2023-05-10T04:28:44.835Z,12.70
2023-05-10T04:31:12.654Z,16.10
2023-05-10T04:33:40.527Z,13.88
2023-05-10T04:36:08.301Z,12.82
2023-05-10T04:38:35.809Z,10.13
2023-05-10T04:41:08.897Z,10.00
2023-05-10T04:43:37.311Z,12.10
2023-05-10T04:46:06.512Z,13.02
2023-05-10T04:48:34.601Z,11.00
2023-05-10T04:51:02.254Z,12.53
2023-05-10T04:53:30.014Z,11.90
2023-05-10T04:55:57.495Z,12.60
2023-05-10T04:58:24.990Z,12.27
2023-05-10T05:00:52.807Z,13.32
2023-05-10T05:03:20.509Z,14.23
2023-05-10T05:05:48.116Z,11.68
2023-05-10T05:08:15.934Z,11.32
2023-05-10T05:10:43.838Z,12.10
2023-05-10T05:13:11.366Z,10.13
2023-05-10T05:15:39.181Z,10.33
2023-05-10T05:18:06.707Z,10.55
2023-05-10T05:20:35.527Z,9.98
2023-05-10T05:23:03.436Z,10.07
2023-05-10T05:25:30.978Z,10.38
2023-05-10T05:27:58.549Z,10.90
2023-05-10T05:30:26.362Z,10.15
2023-05-10T05:32:54.077Z,9.98
2023-05-10T05:35:21.796Z,10.27
2023-05-10T05:37:49.562Z,10.20
2023-05-10T05:40:17.180Z,8.80
2023-05-10T05:42:44.702Z,9.20
2023-05-10T05:45:14.381Z,9.95
2023-05-10T05:47:42.407Z,8.38
2023-05-10T05:50:10.641Z,8.73
2023-05-10T05:52:38.429Z,7.77
2023-05-10T05:55:06.408Z,10.35
2023-05-10T05:57:34.700Z,7.75
2023-05-10T06:00:03.855Z,6.75
2023-05-10T06:02:40.145Z,8.50
2023-05-10T06:05:08.806Z,11.80
2023-05-10T06:07:36.288Z,9.98
2023-05-10T06:10:04.160Z,7.93
2023-05-10T06:12:32.013Z,7.65
2023-05-10T06:14:59.553Z,8.52
2023-05-10T06:17:27.605Z,7.23
2023-05-10T06:19:56.182Z,11.73
2023-05-10T06:22:23.879Z,7.35
2023-05-10T06:24:51.632Z,7.05
2023-05-10T06:27:19.467Z,6.60
2023-05-10T06:29:47.034Z,8.60
2023-05-10T06:32:14.516Z,6.87
2023-05-10T06:34:44.256Z,6.78
2023-05-10T06:37:11.752Z,6.90
2023-05-10T06:39:39.462Z,7.57
2023-05-10T06:42:07.266Z,9.90
2023-05-10T06:44:34.785Z,5.22
2023-05-10T06:47:02.262Z,8.18
2023-05-10T06:49:30.155Z,7.12
2023-05-10T06:51:57.716Z,6.65
2023-05-10T06:54:25.398Z,6.63
2023-05-10T06:56:53.536Z,8.88
2023-05-10T06:59:22.570Z,5.90
2023-05-10T07:01:50.223Z,7.32
2023-05-10T07:04:18.781Z,4.97
2023-05-10T07:06:47.415Z,5.60
2023-05-10T07:09:14.877Z,5.78
2023-05-10T07:11:42.752Z,5.70
2023-05-10T07:14:10.621Z,6.82
2023-05-10T07:16:38.141Z,5.85
2023-05-10T07:19:06.466Z,5.57
2023-05-10T07:21:34.076Z,10.07
2023-05-10T07:24:02.198Z,6.65
2023-05-10T07:26:30.646Z,7.22
2023-05-10T07:28:58.210Z,7.65
2023-05-10T07:31:25.798Z,7.70
2023-05-10T07:33:53.641Z,7.57
2023-05-10T07:36:21.319Z,8.02
2023-05-10T07:38:50.525Z,6.68
2023-05-10T07:41:18.339Z,7.90
2023-05-10T07:43:45.795Z,6.33
2023-05-10T07:46:13.308Z,7.57
2023-05-10T07:48:41.223Z,6.75
2023-05-10T07:51:10.422Z,7.53
2023-05-10T07:53:38.981Z,8.43
2023-05-10T07:56:33.362Z,9.40
2023-05-10T07:59:01.272Z,8.10
2023-05-10T08:01:32.347Z,8.05
2023-05-10T08:04:01.024Z,9.00
2023-05-10T08:06:30.960Z,10.73
2023-05-10T08:08:58.776Z,8.53
2023-05-10T08:11:28.613Z,8.95
2023-05-10T08:13:56.123Z,8.07
2023-05-10T08:16:23.830Z,8.18
2023-05-10T08:18:52.029Z,8.60
2023-05-10T08:21:19.730Z,7.80
2023-05-10T08:23:47.267Z,9.75
2023-05-10T08:26:15.141Z,7.82
2023-05-10T08:28:42.626Z,11.80
2023-05-10T08:31:10.165Z,9.68
2023-05-10T08:33:37.958Z,7.23
2023-05-10T08:36:05.560Z,7.95
2023-05-10T08:38:33.121Z,8.13
2023-05-10T08:41:03.293Z,10.40
2023-05-10T08:43:31.406Z,13.43
2023-05-10T08:46:05.314Z,6.87
2023-05-10T08:48:35.695Z,9.00
2023-05-10T08:51:04.803Z,7.30
2023-05-10T08:53:36.431Z,8.55
2023-05-10T08:56:04.919Z,6.75
2023-05-10T08:58:32.868Z,9.00
2023-05-10T09:01:02.006Z,5.78
2023-05-10T09:03:30.683Z,9.38
2023-05-10T09:05:58.298Z,6.57
2023-05-10T09:08:26.906Z,7.65
2023-05-10T09:10:55.912Z,6.00
2023-05-10T09:13:24.767Z,8.48
2023-05-10T09:15:53.139Z,5.30
2023-05-10T09:18:21.119Z,6.25
2023-05-10T09:20:49.556Z,13.25
2023-05-10T09:23:17.074Z,6.17
2023-05-10T09:25:44.989Z,7.57
2023-05-10T09:28:12.835Z,7.18
2023-05-10T09:30:40.671Z,6.07
2023-05-10T09:33:08.962Z,6.35
2023-05-10T09:35:37.189Z,5.73
2023-05-10T09:38:06.543Z,6.35
2023-05-10T09:40:34.472Z,6.07
2023-05-10T09:43:04.661Z,6.28
2023-05-10T09:45:36.122Z,6.43
2023-05-10T09:48:07.098Z,6.87
2023-05-10T09:50:35.315Z,5.05
2023-05-10T09:53:04.393Z,5.43
2023-05-10T09:55:45.733Z,5.12
2023-05-10T09:58:15.155Z,8.52
2023-05-10T10:00:45.166Z,7.30
2023-05-10T10:03:21.134Z,8.45
2023-05-10T10:05:50.055Z,5.57
2023-05-10T10:08:19.442Z,5.95
2023-05-10T10:10:48.076Z,5.20
2023-05-10T10:13:16.537Z,5.80
2023-05-10T10:15:45.626Z,8.25
2023-05-10T10:18:16.690Z,5.35
2023-05-10T10:20:44.754Z,5.05
2023-05-10T10:23:12.718Z,4.40
2023-05-10T10:25:40.945Z,4.00
2023-05-10T10:28:36.681Z,3.62
2023-05-10T10:31:22.693Z,4.57
2023-05-10T10:34:02.035Z,5.25
2023-05-10T10:36:29.888Z,6.70
2023-05-10T10:39:02.370Z,4.97
2023-05-10T10:41:38.348Z,3.83
2023-05-10T10:44:27.309Z,7.37
2023-05-10T10:47:09.263Z,7.00
2023-05-10T10:49:40.144Z,4.28
2023-05-10T10:52:34.519Z,4.30
2023-05-10T10:55:02.475Z,7.45
2023-05-10T10:57:33.396Z,4.53
2023-05-10T11:00:33.999Z,6.43
2023-05-10T11:03:19.596Z,3.97
2023-05-10T11:05:48.862Z,6.13
2023-05-10T11:08:17.398Z,9.30
2023-05-10T11:11:09.980Z,5.00
2023-05-10T11:13:51.658Z,5.90
2023-05-10T11:16:20.900Z,6.53
2023-05-10T11:19:10.528Z,7.60
2023-05-10T11:22:14.901Z,5.10
2023-05-10T11:24:57.895Z,7.53
2023-05-10T11:27:25.838Z,6.87
2023-05-10T11:29:53.740Z,5.78
2023-05-10T11:32:21.819Z,10.33
2023-05-10T11:34:49.621Z,3.85
2023-05-10T11:37:19.307Z,4.82
2023-05-10T11:39:50.336Z,6.47
2023-05-10T11:42:18.311Z,11.55
2023-05-10T11:44:48.020Z,5.57
2023-05-10T11:47:15.673Z,4.85
2023-05-10T11:49:47.773Z,4.68
2023-05-10T11:52:15.433Z,5.03
2023-05-10T11:54:51.783Z,4.53
2023-05-10T11:57:21.293Z,4.67
2023-05-10T11:59:51.180Z,4.37
2023-05-10T12:02:18.910Z,4.10
2023-05-10T12:04:46.769Z,4.30
2023-05-10T12:07:14.532Z,3.90
2023-05-10T12:09:46.021Z,5.10
2023-05-10T12:12:22.882Z,5.57
2023-05-10T12:14:51.834Z,3.85
2023-05-10T12:17:19.661Z,5.20
2023-05-10T12:19:48.208Z,4.18
2023-05-10T12:22:15.934Z,3.73
2023-05-10T12:24:46.373Z,4.70
2023-05-10T12:27:13.985Z,4.25
2023-05-10T12:29:45.433Z,4.22
2023-05-10T12:32:13.370Z,3.00
2023-05-10T12:34:41.140Z,4.20
2023-05-10T12:37:08.636Z,4.68
2023-05-10T12:39:44.003Z,4.15
2023-05-10T12:42:12.112Z,3.58
2023-05-10T12:44:40.872Z,3.95
2023-05-10T12:47:08.502Z,4.47
2023-05-10T12:49:36.435Z,3.50
2023-05-10T12:52:04.400Z,5.20
2023-05-10T12:54:31.947Z,6.20
2023-05-10T12:56:59.385Z,3.83
2023-05-10T12:59:27.100Z,3.80
2023-05-10T13:01:54.565Z,6.50
2023-05-10T13:04:22.041Z,5.37
2023-05-10T13:06:49.888Z,3.42
2023-05-10T13:09:17.336Z,3.75
2023-05-10T13:11:45.088Z,4.43
2023-05-10T13:14:12.858Z,4.15
2023-05-10T13:16:40.354Z,5.60
2023-05-10T13:19:07.951Z,5.47
2023-05-10T13:21:35.787Z,3.65
2023-05-10T13:24:03.391Z,3.77
2023-05-10T13:26:30.933Z,3.15
2023-05-10T13:28:58.796Z,10.05
2023-05-10T13:31:26.544Z,4.93
2023-05-10T13:33:54.207Z,3.55
2023-05-10T13:36:22.243Z,3.17
2023-05-10T13:38:50.035Z,3.53
2023-05-10T13:41:17.697Z,2.90
2023-05-10T13:43:45.479Z,2.78
2023-05-10T13:46:13.388Z,6.35
2023-05-10T13:48:40.918Z,6.03
2023-05-10T13:51:08.983Z,3.95
2023-05-10T13:53:36.528Z,15.55
2023-05-10T13:56:04.145Z,4.05
2023-05-10T13:58:31.941Z,2.95
2023-05-10T14:00:59.414Z,2.70
2023-05-10T14:03:27.270Z,4.75
2023-05-10T14:05:54.841Z,6.30
2023-05-10T14:08:22.691Z,3.85
2023-05-10T14:10:51.747Z,4.18
2023-05-10T14:13:19.228Z,5.10
2023-05-10T14:15:47.062Z,6.25
2023-05-10T14:18:15.402Z,4.30
2023-05-10T14:20:43.003Z,4.35
2023-05-10T14:23:11.946Z,4.28
2023-05-10T14:25:42.886Z,4.53
2023-05-10T14:28:10.701Z,5.95
2023-05-10T14:30:38.211Z,2.97
2023-05-10T14:33:06.051Z,4.35
2023-05-10T14:35:33.926Z,3.65
2023-05-10T14:38:01.530Z,4.53
2023-05-10T14:40:29.761Z,5.12
2023-05-10T14:42:57.451Z,8.07
2023-05-10T14:45:25.079Z,3.22
2023-05-10T14:47:52.973Z,2.85
2023-05-10T14:50:35.299Z,4.80
2023-05-10T14:53:04.837Z,5.53
2023-05-10T14:55:32.510Z,5.87
2023-05-10T14:57:59.963Z,2.08
2023-05-10T15:00:30.086Z,3.28
2023-05-10T15:02:58.590Z,3.40
2023-05-10T15:05:26.718Z,3.62
2023-05-10T15:07:55.095Z,3.42
2023-05-10T15:10:22.688Z,3.55
2023-05-10T15:12:51.138Z,2.50
2023-05-10T15:15:19.068Z,6.97
2023-05-10T15:17:46.995Z,3.92
2023-05-10T15:20:15.120Z,2.97
2023-05-10T15:22:42.938Z,3.70
2023-05-10T15:25:10.892Z,2.50
2023-05-10T15:27:38.486Z,5.00
2023-05-10T15:30:07.342Z,4.68
2023-05-10T15:32:34.847Z,3.62
2023-05-10T15:35:02.816Z,3.70
2023-05-10T15:37:30.592Z,3.12
2023-05-10T15:40:04.428Z,3.67
2023-05-10T15:42:32.850Z,4.20
2023-05-10T15:45:00.411Z,6.47
2023-05-10T15:47:30.904Z,3.08
2023-05-10T15:49:59.027Z,4.18
2023-05-10T15:52:26.600Z,3.00
2023-05-10T15:54:54.242Z,4.68
2023-05-10T15:57:22.062Z,3.58
2023-05-10T15:59:49.636Z,3.58
2023-05-10T16:02:19.360Z,3.17
2023-05-10T16:04:47.447Z,4.60
2023-05-10T16:07:14.963Z,4.55
2023-05-10T16:09:42.662Z,2.75
2023-05-10T16:12:10.718Z,4.28
2023-05-10T16:14:38.252Z,2.37
2023-05-10T16:17:05.933Z,4.17
2023-05-10T16:19:33.964Z,4.18
2023-05-10T16:22:01.736Z,5.10
2023-05-10T16:24:29.514Z,3.70
2023-05-10T16:26:57.403Z,4.95
2023-05-10T16:29:26.291Z,6.53
2023-05-10T16:31:54.000Z,2.25
2023-05-10T16:34:25.416Z,3.47
2023-05-10T16:36:53.085Z,3.17
2023-05-10T16:39:21.474Z,3.58
2023-05-10T16:41:49.315Z,3.47
2023-05-10T16:44:18.916Z,3.55
2023-05-10T16:46:48.008Z,2.75
2023-05-10T16:49:16.483Z,2.47
2023-05-10T16:51:44.051Z,2.50
2023-05-10T16:54:11.698Z,3.07
2023-05-10T16:56:39.557Z,6.22
2023-05-10T16:59:07.061Z,5.10
2023-05-10T17:01:34.675Z,9.07
2023-05-10T17:04:03.330Z,2.97
2023-05-10T17:06:34.089Z,4.47
2023-05-10T17:09:02.039Z,2.25
2023-05-10T17:11:30.101Z,2.72
2023-05-10T17:13:59.261Z,3.42
2023-05-10T17:16:27.406Z,3.40
2023-05-10T17:18:54.948Z,6.03
2023-05-10T17:21:22.532Z,2.90
2023-05-10T17:23:50.390Z,4.20
2023-05-10T17:26:17.919Z,4.47
2023-05-10T17:28:45.549Z,3.72
2023-05-10T17:31:13.453Z,3.60
2023-05-10T17:33:41.033Z,2.42
2023-05-10T17:36:08.659Z,5.22
2023-05-10T17:38:36.974Z,7.00
2023-05-10T17:41:04.472Z,3.45
2023-05-10T17:43:31.960Z,3.63
2023-05-10T17:45:59.883Z,5.28
2023-05-10T17:48:27.743Z,3.53
2023-05-10T17:50:55.306Z,4.97
2023-05-10T17:53:23.363Z,6.05
2023-05-10T17:55:51.783Z,4.17
2023-05-10T17:58:19.265Z,3.65
2023-05-10T18:00:47.112Z,2.67
2023-05-10T18:03:15.108Z,4.07
2023-05-10T18:05:42.732Z,4.05
2023-05-10T18:08:10.426Z,3.70
2023-05-10T18:10:40.631Z,5.35
2023-05-10T18:13:09.488Z,4.37
2023-05-10T18:15:37.583Z,4.97
2023-05-10T18:18:05.684Z,3.45
2023-05-10T18:20:33.553Z,3.27
2023-05-10T18:23:04.233Z,6.95
2023-05-10T18:25:32.066Z,4.07
2023-05-10T18:27:59.563Z,3.50
2023-05-10T18:30:27.048Z,4.22
2023-05-10T18:32:55.663Z,4.00
2023-05-10T18:35:23.291Z,4.60
2023-05-10T18:37:50.972Z,3.22
2023-05-10T18:40:19.653Z,3.70
2023-05-10T18:42:47.408Z,3.65
2023-05-10T18:45:15.216Z,6.57
2023-05-10T18:47:43.304Z,2.97
2023-05-10T18:50:11.399Z,4.10
2023-05-10T18:52:38.987Z,7.47
2023-05-10T18:55:07.492Z,4.78
2023-05-10T18:57:41.217Z,2.70
2023-05-10T19:00:10.853Z,4.28
2023-05-10T19:02:42.111Z,3.03
2023-05-10T19:05:10.470Z,4.75
2023-05-10T19:07:38.298Z,3.17
2023-05-10T19:10:06.542Z,5.07
2023-05-10T19:12:34.627Z,3.42
2023-05-10T19:15:02.171Z,3.83
2023-05-10T19:17:30.280Z,3.87
2023-05-10T19:19:59.298Z,4.82
2023-05-10T19:22:45.002Z,4.67
2023-05-10T19:25:17.094Z,3.55
2023-05-10T19:27:45.342Z,4.25
2023-05-10T19:30:13.349Z,5.12
2023-05-10T19:32:44.210Z,3.53
2023-05-10T19:35:13.721Z,3.93
2023-05-10T19:37:46.017Z,4.03
2023-05-10T19:40:18.629Z,5.97
2023-05-10T19:42:46.725Z,4.40
2023-05-10T19:45:15.916Z,3.12
2023-05-10T19:47:43.956Z,2.47
2023-05-10T19:50:12.609Z,5.40
2023-05-10T19:52:40.346Z,3.53
2023-05-10T19:55:08.866Z,2.20
2023-05-10T19:57:37.194Z,4.95
2023-05-10T20:00:05.347Z,2.33
2023-05-10T20:02:39.095Z,4.00
2023-05-10T20:05:07.502Z,6.28
2023-05-10T20:07:34.990Z,4.20
2023-05-10T20:10:03.091Z,3.37
2023-05-10T20:12:30.969Z,2.60
2023-05-10T20:14:58.532Z,2.33
2023-05-10T20:17:26.028Z,3.17
2023-05-10T20:19:53.803Z,5.65
2023-05-10T20:22:21.466Z,5.60
2023-05-10T20:24:48.993Z,3.80
2023-05-10T20:27:17.174Z,3.70
2023-05-10T20:29:44.715Z,7.07
2023-05-10T20:32:12.225Z,5.65
2023-05-10T20:34:40.150Z,3.83
2023-05-10T20:37:08.177Z,5.90
2023-05-10T20:39:35.962Z,3.00
2023-05-10T20:42:03.895Z,2.97
2023-05-10T20:44:31.401Z,2.58
2023-05-10T20:46:58.882Z,5.35
2023-05-10T20:49:28.093Z,4.80
2023-05-10T20:51:55.980Z,2.58
2023-05-10T20:54:24.433Z,3.50
2023-05-10T20:56:52.280Z,3.12
2023-05-10T20:59:19.808Z,2.83
2023-05-10T21:01:47.518Z,2.53
2023-05-10T21:04:15.344Z,2.50
2023-05-10T21:06:46.163Z,3.47
2023-05-10T21:09:13.701Z,3.10
2023-05-10T21:11:41.634Z,8.55
2023-05-10T21:14:09.785Z,3.70
2023-05-10T21:16:37.376Z,2.97
2023-05-10T21:19:07.270Z,3.03
2023-05-10T21:21:35.225Z,2.65
2023-05-10T21:24:02.706Z,4.57
2023-05-10T21:26:31.393Z,5.37
2023-05-10T21:28:59.387Z,3.22
2023-05-10T21:31:27.009Z,2.87
2023-05-10T21:33:54.909Z,4.00
2023-05-10T21:36:22.862Z,3.85
2023-05-10T21:38:50.739Z,6.07
2023-05-10T21:41:18.673Z,4.22
2023-05-10T21:43:46.136Z,5.82
2023-05-10T21:46:14.407Z,2.60
2023-05-10T21:48:42.303Z,3.28
2023-05-10T21:51:09.914Z,4.70
2023-05-10T21:53:39.080Z,3.45
2023-05-10T21:56:07.410Z,4.55
2023-05-10T21:58:34.922Z,3.53
2023-05-10T22:01:03.405Z,4.80
2023-05-10T22:03:31.422Z,3.53
2023-05-10T22:05:58.974Z,4.62
2023-05-10T22:08:26.795Z,7.43
2023-05-10T22:10:54.593Z,5.68
2023-05-10T22:13:22.130Z,4.43
2023-05-10T22:15:49.711Z,5.70
2023-05-10T22:18:17.653Z,3.83
2023-05-10T22:20:46.533Z,5.15
2023-05-10T22:23:14.386Z,6.25
2023-05-10T22:25:42.251Z,3.00
2023-05-10T22:28:10.418Z,4.10
2023-05-10T22:30:38.009Z,3.05
2023-05-10T22:33:06.619Z,4.20
2023-05-10T22:35:34.327Z,5.45
2023-05-10T22:38:01.883Z,6.75
2023-05-10T22:40:29.705Z,4.67
2023-05-10T22:42:57.215Z,4.57
2023-05-10T22:45:24.673Z,3.85
2023-05-10T22:47:52.484Z,3.55
2023-05-10T22:50:21.129Z,3.47
2023-05-10T22:52:48.752Z,4.50
2023-05-10T22:55:17.077Z,7.15
2023-05-10T22:57:44.657Z,4.43
2023-05-10T23:00:12.649Z,4.68
2023-05-10T23:02:40.587Z,4.35
2023-05-10T23:05:08.775Z,3.47
2023-05-10T23:07:36.455Z,3.05
2023-05-10T23:10:04.530Z,5.57
2023-05-10T23:12:32.088Z,3.72
2023-05-10T23:14:59.734Z,4.53
2023-05-10T23:17:27.637Z,7.93
2023-05-10T23:19:55.278Z,3.55
2023-05-10T23:22:22.823Z,3.80
2023-05-10T23:24:50.646Z,7.75
2023-05-10T23:27:18.218Z,3.62
2023-05-10T23:29:45.738Z,3.90
2023-05-10T23:32:13.550Z,3.47
2023-05-10T23:34:41.082Z,4.45
2023-05-10T23:37:08.598Z,3.67
2023-05-10T23:39:36.449Z,3.62
2023-05-10T23:42:04.239Z,5.40
2023-05-10T23:44:31.807Z,3.58
2023-05-10T23:46:59.578Z,3.80
2023-05-10T23:49:27.241Z,4.60
2023-05-10T23:51:54.858Z,4.90
2023-05-10T23:54:22.733Z,3.73
2023-05-10T23:56:51.631Z,4.40
2023-05-10T23:59:19.158Z,4.82
